createdAt,value
2017-12-12T00:00:51.193Z,88.64
2017-12-12T00:01:55.487Z,88.87
2017-12-12T00:03:00.092Z,88.11
2017-12-12T00:04:04.790Z,88.11
2017-12-12T00:05:09.771Z,88.25
2017-12-12T00:06:14.157Z,88.59
2017-12-12T00:07:18.964Z,88.24
2017-12-12T00:09:24.222Z,88.16
2017-12-12T00:10:28.759Z,87.78
2017-12-12T00:11:32.992Z,87.47
2017-12-12T00:12:37.239Z,88.30
2017-12-12T00:13:41.583Z,88.11
2017-12-12T00:14:45.960Z,88.83
2017-12-12T00:15:50.163Z,88.12
2017-12-12T00:16:54.821Z,88.18
2017-12-12T00:17:59.328Z,88.38
2017-12-12T00:19:04.039Z,87.87
2017-12-12T00:20:08.878Z,87.97
2017-12-12T00:21:13.137Z,87.74
2017-12-12T00:22:19.158Z,87.71
2017-12-12T00:23:23.755Z,87.84
2017-12-12T00:24:27.981Z,87.78
2017-12-12T00:25:32.214Z,87.61
2017-12-12T00:26:36.512Z,87.96
2017-12-12T00:27:40.747Z,87.45
2017-12-12T00:28:44.970Z,86.95
2017-12-12T00:29:49.573Z,87.11
2017-12-12T00:30:53.992Z,87.63
2017-12-12T00:31:59.606Z,87.59
2017-12-12T00:33:04.164Z,88.13
2017-12-12T00:34:08.424Z,87.89
2017-12-12T00:35:12.730Z,87.81
2017-12-12T00:36:17.315Z,87.84
2017-12-12T00:37:21.682Z,87.73
2017-12-12T00:38:26.011Z,87.16
2017-12-12T00:39:31.171Z,87.08
2017-12-12T00:40:35.449Z,87.09
2017-12-12T00:41:39.799Z,87.15
2017-12-12T00:42:44.359Z,86.86
2017-12-12T00:43:48.558Z,86.34
2017-12-12T00:44:52.760Z,86.49
2017-12-12T00:45:57.303Z,86.86
2017-12-12T00:47:01.546Z,86.88
2017-12-12T00:48:05.837Z,87.50
2017-12-12T00:49:10.096Z,87.70
2017-12-12T00:50:14.275Z,87.96
2017-12-12T00:51:18.505Z,88.10
2017-12-12T00:52:22.827Z,88.23
2017-12-12T00:53:27.138Z,88.36
2017-12-12T00:54:31.378Z,88.34
2017-12-12T00:55:35.956Z,87.65
2017-12-12T00:56:41.160Z,87.35
2017-12-12T00:57:45.463Z,87.72
2017-12-12T00:58:49.701Z,87.97
2017-12-12T00:59:54.080Z,87.73
2017-12-12T01:00:58.704Z,87.45
2017-12-12T01:02:03.822Z,87.87
2017-12-12T01:03:08.653Z,88.66
2017-12-12T01:04:12.916Z,88.48
2017-12-12T01:05:17.251Z,88.53
2017-12-12T01:06:21.486Z,87.99
2017-12-12T01:07:25.795Z,87.60
2017-12-12T01:08:30.347Z,87.47
2017-12-12T01:09:34.591Z,87.79
2017-12-12T01:10:38.888Z,88.07
2017-12-12T01:11:43.135Z,88.02
2017-12-12T01:12:47.472Z,87.54
2017-12-12T01:13:51.782Z,87.30
2017-12-12T01:14:56.326Z,87.10
2017-12-12T01:16:01.031Z,86.84
2017-12-12T01:17:05.259Z,86.47
2017-12-12T01:18:09.504Z,86.07
2017-12-12T01:19:13.852Z,87.14
2017-12-12T01:20:18.109Z,87.70
2017-12-12T01:21:22.612Z,88.20
2017-12-12T01:22:26.809Z,88.32
2017-12-12T01:23:31.091Z,87.87
2017-12-12T01:24:35.339Z,87.60
2017-12-12T01:25:39.523Z,87.37
2017-12-12T01:26:43.893Z,87.56
2017-12-12T01:27:48.525Z,87.22
2017-12-12T01:28:52.746Z,87.01
2017-12-12T01:29:56.958Z,87.04
2017-12-12T01:31:01.392Z,87.16
2017-12-12T01:32:06.748Z,87.92
2017-12-12T01:33:11.145Z,87.91
2017-12-12T01:34:15.384Z,88.12
2017-12-12T01:35:20.593Z,88.22
2017-12-12T01:36:24.793Z,87.95
2017-12-12T01:37:29.080Z,88.13
2017-12-12T01:38:33.451Z,88.47
2017-12-12T01:39:37.968Z,88.41
2017-12-12T01:40:43.148Z,88.27
2017-12-12T01:41:47.368Z,87.97
2017-12-12T01:42:51.715Z,88.00
2017-12-12T01:43:56.031Z,88.20
2017-12-12T01:45:00.255Z,88.51
2017-12-12T01:46:05.043Z,88.31
2017-12-12T01:47:09.962Z,88.09
2017-12-12T01:48:14.300Z,87.87
2017-12-12T01:49:18.586Z,87.61
2017-12-12T01:50:22.867Z,87.56
2017-12-12T01:51:27.290Z,87.50
2017-12-12T01:52:31.875Z,87.94
2017-12-12T01:53:36.111Z,87.67
2017-12-12T01:54:40.581Z,87.51
2017-12-12T01:55:46.733Z,88.07
2017-12-12T01:56:51.106Z,88.00
2017-12-12T01:57:55.627Z,87.96
2017-12-12T01:59:00.267Z,88.11
2017-12-12T02:00:06.090Z,87.68
2017-12-12T02:01:10.943Z,87.97
2017-12-12T02:02:15.217Z,88.22
2017-12-12T02:03:19.614Z,88.17
2017-12-12T02:04:24.180Z,87.76
2017-12-12T02:05:28.836Z,87.75
2017-12-12T02:06:33.094Z,87.78
2017-12-12T02:07:37.366Z,87.71
2017-12-12T02:08:42.272Z,87.38
2017-12-12T02:09:47.513Z,87.73
2017-12-12T02:10:51.702Z,88.11
2017-12-12T02:11:56.239Z,88.05
2017-12-12T02:13:00.527Z,87.86
2017-12-12T02:14:04.996Z,88.61
2017-12-12T02:15:09.549Z,88.36
2017-12-12T02:16:14.122Z,88.49
2017-12-12T02:17:18.386Z,88.74
2017-12-12T02:18:22.920Z,88.21
2017-12-12T02:19:27.174Z,88.07
2017-12-12T02:20:31.523Z,88.33
2017-12-12T02:21:35.781Z,88.38
2017-12-12T02:22:40.034Z,88.50
2017-12-12T02:23:45.041Z,88.54
2017-12-12T02:24:49.360Z,88.90
2017-12-12T02:25:53.559Z,88.93
2017-12-12T02:26:58.688Z,88.49
2017-12-12T02:28:03.014Z,88.42
2017-12-12T02:29:07.850Z,88.61
2017-12-12T02:30:14.956Z,88.39
2017-12-12T02:31:19.472Z,88.68
2017-12-12T02:32:23.826Z,89.49
2017-12-12T02:33:28.165Z,89.62
2017-12-12T02:34:32.429Z,89.34
2017-12-12T02:35:36.685Z,88.95
2017-12-12T02:36:42.157Z,88.73
2017-12-12T02:37:46.479Z,88.41
2017-12-12T02:38:50.660Z,87.97
2017-12-12T02:39:55.008Z,88.26
2017-12-12T02:40:59.254Z,88.51
2017-12-12T02:42:03.484Z,89.39
2017-12-12T02:43:09.226Z,89.03
2017-12-12T02:44:13.470Z,89.21
2017-12-12T02:45:17.902Z,90.10
2017-12-12T02:46:22.393Z,90.30
2017-12-12T02:47:26.643Z,90.26
2017-12-12T02:48:30.938Z,90.27
2017-12-12T02:49:35.626Z,90.49
2017-12-12T02:50:39.866Z,90.81
2017-12-12T02:51:44.902Z,91.25
2017-12-12T02:52:49.109Z,91.47
2017-12-12T02:53:53.349Z,91.87
2017-12-12T02:54:57.721Z,91.85
2017-12-12T02:56:02.300Z,92.08
2017-12-12T02:57:07.396Z,92.14
2017-12-12T02:58:11.627Z,92.38
2017-12-12T02:59:15.941Z,92.51
2017-12-12T03:00:21.580Z,92.55
2017-12-12T03:01:25.824Z,92.63
2017-12-12T03:02:30.352Z,92.44
2017-12-12T03:03:34.596Z,92.60
2017-12-12T03:04:38.945Z,92.60
2017-12-12T03:05:45.327Z,92.71
2017-12-12T03:06:49.669Z,92.32
2017-12-12T03:07:53.875Z,92.48
2017-12-12T03:08:58.429Z,92.85
2017-12-12T03:10:02.758Z,92.83
2017-12-12T03:11:07.188Z,92.93
2017-12-12T03:12:11.448Z,93.00
2017-12-12T03:13:15.729Z,93.04
2017-12-12T03:14:20.050Z,93.26
2017-12-12T03:15:24.749Z,93.32
2017-12-12T03:16:28.987Z,93.21
2017-12-12T03:17:34.211Z,93.03
2017-12-12T03:18:38.530Z,92.70
2017-12-12T03:19:43.460Z,92.27
2017-12-12T03:20:47.705Z,92.60
2017-12-12T03:21:52.229Z,92.83
2017-12-12T03:22:56.525Z,92.88
2017-12-12T03:24:00.807Z,92.90
2017-12-12T03:25:05.031Z,93.24
2017-12-12T03:26:09.316Z,93.28
2017-12-12T03:27:13.549Z,93.15
2017-12-12T03:28:18.122Z,93.10
2017-12-12T03:29:22.346Z,93.36
2017-12-12T03:30:26.780Z,93.35
2017-12-12T03:31:31.059Z,93.36
2017-12-12T03:32:35.260Z,93.05
2017-12-12T03:33:39.463Z,93.03
2017-12-12T03:34:44.807Z,92.68
2017-12-12T03:35:49.012Z,92.89
2017-12-12T03:36:53.243Z,93.03
2017-12-12T03:37:57.447Z,93.12
2017-12-12T03:39:01.717Z,93.26
2017-12-12T03:40:05.884Z,93.25
2017-12-12T03:41:10.190Z,93.11
2017-12-12T03:42:14.418Z,93.22
2017-12-12T03:43:18.664Z,93.24
2017-12-12T03:44:22.983Z,93.23
2017-12-12T03:45:27.451Z,93.00
2017-12-12T03:46:31.640Z,93.09
2017-12-12T03:47:36.242Z,93.17
2017-12-12T03:48:40.449Z,93.29
2017-12-12T03:49:45.820Z,93.52
2017-12-12T03:50:50.107Z,93.48
2017-12-12T03:51:54.281Z,93.11
2017-12-12T03:52:58.512Z,93.09
2017-12-12T03:54:03.046Z,92.84
2017-12-12T03:55:07.927Z,92.85
2017-12-12T03:56:12.218Z,93.01
2017-12-12T03:57:16.440Z,92.90
2017-12-12T03:58:20.622Z,92.99
2017-12-12T03:59:24.870Z,93.08
2017-12-12T04:00:29.914Z,93.31
2017-12-12T04:01:34.181Z,93.11
2017-12-12T04:02:38.423Z,92.86
2017-12-12T04:03:43.798Z,92.80
2017-12-12T04:04:48.997Z,92.96
2017-12-12T04:05:54.269Z,92.96
2017-12-12T04:06:58.468Z,93.06
2017-12-12T04:08:02.789Z,92.93
2017-12-12T04:09:08.493Z,93.03
2017-12-12T04:10:12.746Z,92.90
2017-12-12T04:11:18.153Z,92.74
2017-12-12T04:12:22.676Z,92.93
2017-12-12T04:13:26.925Z,93.07
2017-12-12T04:14:31.208Z,92.92
2017-12-12T04:15:35.437Z,92.76
2017-12-12T04:16:40.145Z,92.77
2017-12-12T04:17:45.070Z,92.64
2017-12-12T04:18:49.648Z,92.78
2017-12-12T04:19:56.156Z,92.56
2017-12-12T04:21:00.377Z,92.37
2017-12-12T04:22:04.602Z,92.37
2017-12-12T04:23:09.648Z,92.49
2017-12-12T04:24:13.836Z,92.26
2017-12-12T04:25:18.418Z,92.53
2017-12-12T04:26:22.572Z,92.64
2017-12-12T04:27:26.862Z,92.48
2017-12-12T04:28:31.105Z,92.44
2017-12-12T04:29:35.343Z,92.54
2017-12-12T04:30:39.857Z,92.52
2017-12-12T04:31:44.988Z,92.70
2017-12-12T04:32:49.215Z,92.90
2017-12-12T04:33:53.433Z,93.01
2017-12-12T04:34:57.625Z,93.12
2017-12-12T04:36:01.844Z,93.10
2017-12-12T04:37:06.166Z,92.69
2017-12-12T04:38:10.754Z,92.73
2017-12-12T04:39:14.968Z,92.50
2017-12-12T04:40:19.176Z,92.51
2017-12-12T04:41:23.376Z,92.39
2017-12-12T04:42:27.572Z,92.25
2017-12-12T04:43:31.839Z,92.26
2017-12-12T04:44:36.468Z,92.11
2017-12-12T04:45:40.968Z,92.27
2017-12-12T04:46:47.378Z,92.12
2017-12-12T04:47:51.669Z,92.11
2017-12-12T04:48:55.885Z,92.24
2017-12-12T04:50:00.179Z,92.43
2017-12-12T04:51:04.749Z,92.52
2017-12-12T04:52:09.884Z,92.15
2017-12-12T04:53:14.187Z,92.10
2017-12-12T04:54:18.485Z,92.10
2017-12-12T04:55:22.673Z,92.15
2017-12-12T04:56:27.213Z,92.21
2017-12-12T04:57:31.536Z,91.90
2017-12-12T04:58:35.757Z,91.64
2017-12-12T04:59:40.020Z,91.80
2017-12-12T05:00:46.606Z,91.72
2017-12-12T05:01:50.881Z,91.70
2017-12-12T05:02:55.449Z,92.09
2017-12-12T05:03:59.689Z,92.10
2017-12-12T05:05:04.953Z,92.39
2017-12-12T05:06:09.822Z,92.70
2017-12-12T05:07:14.117Z,92.67
2017-12-12T05:08:18.391Z,92.76
2017-12-12T05:09:22.968Z,92.65
2017-12-12T05:10:27.192Z,92.71
2017-12-12T05:11:31.505Z,92.81
2017-12-12T05:12:36.035Z,92.90
2017-12-12T05:13:40.281Z,92.75
2017-12-12T05:14:45.143Z,92.83
2017-12-12T05:15:50.269Z,93.09
2017-12-12T05:16:54.529Z,93.35
2017-12-12T05:17:58.765Z,93.25
2017-12-12T05:19:03.183Z,93.31
2017-12-12T05:20:09.581Z,93.38
2017-12-12T05:21:13.787Z,93.44
2017-12-12T05:22:17.997Z,93.60
2017-12-12T05:23:22.220Z,93.45
2017-12-12T05:24:26.574Z,93.31
2017-12-12T05:25:30.820Z,93.55
2017-12-12T05:26:35.057Z,93.49
2017-12-12T05:27:39.465Z,93.36
2017-12-12T05:28:43.724Z,93.40
2017-12-12T05:29:48.033Z,93.36
2017-12-12T05:30:52.298Z,93.31
2017-12-12T05:31:56.832Z,93.35
2017-12-12T05:33:01.192Z,93.47
2017-12-12T05:34:05.940Z,93.49
2017-12-12T05:35:11.051Z,93.49
2017-12-12T05:36:15.306Z,93.45
2017-12-12T05:37:19.724Z,93.12
2017-12-12T05:38:26.067Z,93.23
2017-12-12T05:39:32.324Z,93.02
2017-12-12T05:40:36.631Z,93.05
2017-12-12T05:41:40.905Z,93.30
2017-12-12T05:42:46.212Z,93.37
2017-12-12T05:43:50.404Z,92.94
2017-12-12T05:44:55.596Z,93.40
2017-12-12T05:46:00.009Z,92.61
2017-12-12T05:47:04.241Z,92.35
2017-12-12T05:48:08.484Z,92.46
2017-12-12T05:49:12.790Z,92.26
2017-12-12T05:50:17.115Z,92.24
2017-12-12T05:51:21.639Z,92.29
2017-12-12T05:52:25.893Z,92.43
2017-12-12T05:53:30.215Z,92.67
2017-12-12T05:54:34.500Z,92.77
2017-12-12T05:55:38.910Z,92.54
2017-12-12T05:56:43.135Z,92.73
2017-12-12T05:57:48.586Z,92.72
2017-12-12T05:58:52.819Z,92.89
2017-12-12T05:59:57.064Z,93.21
2017-12-12T06:01:01.748Z,92.48
2017-12-12T06:02:06.015Z,92.17
2017-12-12T06:03:10.589Z,92.39
2017-12-12T06:04:14.809Z,92.65
2017-12-12T06:05:19.164Z,92.87
2017-12-12T06:06:23.418Z,92.85
2017-12-12T06:07:27.689Z,92.86
2017-12-12T06:08:31.906Z,92.78
2017-12-12T06:09:36.610Z,92.55
2017-12-12T06:10:40.836Z,92.35
2017-12-12T06:11:46.075Z,92.31
2017-12-12T06:12:50.274Z,92.33
2017-12-12T06:13:54.576Z,92.34
2017-12-12T06:14:58.882Z,92.34
2017-12-12T06:16:03.386Z,92.49
2017-12-12T06:17:08.095Z,92.26
2017-12-12T06:18:13.356Z,92.36
2017-12-12T06:19:17.546Z,92.09
2017-12-12T06:20:21.829Z,91.72
2017-12-12T06:21:28.930Z,91.79
2017-12-12T06:22:33.126Z,91.69
2017-12-12T06:23:38.234Z,91.76
2017-12-12T06:24:42.456Z,91.74
2017-12-12T06:25:46.740Z,91.74
2017-12-12T06:26:51.014Z,92.04
2017-12-12T06:27:56.531Z,92.22
2017-12-12T06:29:01.194Z,92.00
2017-12-12T06:30:07.523Z,92.02
2017-12-12T06:31:11.744Z,92.21
2017-12-12T06:32:15.952Z,92.29
2017-12-12T06:33:20.307Z,92.39
2017-12-12T06:34:25.785Z,92.32
2017-12-12T06:35:30.291Z,92.36
2017-12-12T06:36:34.477Z,92.32
2017-12-12T06:37:38.763Z,92.52
2017-12-12T06:38:43.603Z,92.35
2017-12-12T06:39:47.858Z,92.35
2017-12-12T06:40:52.149Z,92.22
2017-12-12T06:41:56.691Z,92.34
2017-12-12T06:43:01.052Z,92.60
2017-12-12T06:44:06.289Z,92.52
2017-12-12T06:45:13.577Z,92.62
2017-12-12T06:46:18.085Z,92.73
2017-12-12T06:47:23.054Z,92.73
2017-12-12T06:48:27.578Z,92.71
2017-12-12T06:49:32.022Z,92.63
2017-12-12T06:50:36.967Z,92.31
2017-12-12T06:51:41.445Z,92.12
2017-12-12T06:52:45.921Z,92.34
2017-12-12T06:53:50.691Z,92.56
2017-12-12T06:54:54.951Z,92.61
2017-12-12T06:56:02.112Z,92.80
2017-12-12T06:57:07.542Z,93.03
2017-12-12T06:58:11.871Z,92.83
2017-12-12T06:59:16.196Z,93.03
2017-12-12T07:00:20.881Z,92.90
2017-12-12T07:01:26.085Z,93.04
2017-12-12T07:02:30.464Z,93.23
2017-12-12T07:03:34.785Z,93.19
2017-12-12T07:04:39.095Z,93.10
2017-12-12T07:05:44.305Z,93.35
2017-12-12T07:06:49.054Z,93.06
2017-12-12T07:07:53.282Z,93.05
2017-12-12T07:08:57.977Z,93.06
2017-12-12T07:10:02.203Z,93.18
2017-12-12T07:11:06.620Z,93.26
2017-12-12T07:12:10.931Z,93.23
2017-12-12T07:14:27.495Z,92.99
2017-12-12T07:15:34.025Z,93.19
2017-12-12T07:16:38.235Z,93.36
2017-12-12T07:17:43.390Z,93.34
2017-12-12T07:18:47.611Z,93.37
2017-12-12T07:19:51.866Z,93.07
2017-12-12T07:20:56.236Z,93.32
2017-12-12T07:22:00.452Z,93.15
2017-12-12T07:23:04.688Z,92.96
2017-12-12T07:24:09.014Z,92.94
2017-12-12T07:25:13.635Z,93.07
2017-12-12T07:26:17.860Z,92.75
2017-12-12T07:27:22.976Z,92.81
2017-12-12T07:28:27.789Z,92.84
2017-12-12T07:29:32.134Z,92.87
2017-12-12T07:30:36.449Z,92.69
2017-12-12T07:31:42.169Z,92.99
2017-12-12T07:32:46.613Z,93.17
2017-12-12T07:33:50.829Z,93.20
2017-12-12T07:34:55.162Z,93.32
2017-12-12T07:35:59.401Z,93.47
2017-12-12T07:37:04.254Z,93.65
2017-12-12T07:38:08.887Z,93.88
2017-12-12T07:39:13.169Z,93.58
2017-12-12T07:40:17.547Z,93.47
2017-12-12T07:41:21.886Z,93.56
2017-12-12T07:42:26.142Z,93.57
2017-12-12T07:43:30.726Z,93.65
2017-12-12T07:44:34.976Z,93.68
2017-12-12T07:45:39.194Z,93.56
2017-12-12T07:46:44.609Z,93.43
2017-12-12T07:47:49.366Z,93.08
2017-12-12T07:48:54.377Z,93.11
2017-12-12T07:49:58.666Z,93.15
2017-12-12T07:51:03.050Z,93.01
2017-12-12T07:52:07.316Z,93.03
2017-12-12T07:53:11.531Z,93.07
2017-12-12T07:54:15.793Z,93.11
2017-12-12T07:55:20.352Z,92.79
2017-12-12T07:56:24.697Z,92.37
2017-12-12T07:57:28.927Z,92.35
2017-12-12T07:58:33.187Z,92.71
2017-12-12T07:59:37.436Z,93.15
2017-12-12T08:00:42.389Z,93.31
2017-12-12T08:01:47.014Z,93.33
2017-12-12T08:02:51.237Z,93.44
2017-12-12T08:03:55.638Z,93.28
2017-12-12T08:04:59.873Z,93.02
2017-12-12T08:06:04.112Z,92.46
2017-12-12T08:07:09.010Z,92.23
2017-12-12T08:08:13.637Z,92.44
2017-12-12T08:09:17.943Z,92.60
2017-12-12T08:10:22.180Z,92.81
2017-12-12T08:11:26.405Z,92.73
2017-12-12T08:12:30.737Z,92.90
2017-12-12T08:13:35.764Z,92.71
2017-12-12T08:14:40.102Z,92.70
2017-12-12T08:15:46.460Z,92.67
2017-12-12T08:16:50.676Z,93.02
2017-12-12T08:17:54.922Z,92.73
2017-12-12T08:18:59.299Z,92.73
2017-12-12T08:20:03.574Z,92.69
2017-12-12T08:21:09.070Z,92.57
2017-12-12T08:22:15.505Z,92.88
2017-12-12T08:23:24.094Z,92.91
2017-12-12T08:24:29.759Z,93.25
2017-12-12T08:25:33.993Z,93.25
2017-12-12T08:26:38.248Z,93.49
2017-12-12T08:27:42.824Z,93.25
2017-12-12T08:28:47.080Z,92.99
2017-12-12T08:29:51.269Z,92.88
2017-12-12T08:30:55.507Z,92.88
2017-12-12T08:31:59.773Z,93.23
2017-12-12T08:33:04.023Z,92.98
2017-12-12T08:34:09.193Z,92.93
2017-12-12T08:35:14.413Z,93.00
2017-12-12T08:36:18.671Z,92.67
2017-12-12T08:37:22.985Z,92.48
2017-12-12T08:38:27.213Z,92.55
2017-12-12T08:39:31.816Z,92.65
2017-12-12T08:40:36.077Z,93.03
2017-12-12T08:41:40.314Z,92.88
2017-12-12T08:42:44.629Z,92.96
2017-12-12T08:43:48.870Z,93.31
2017-12-12T08:45:05.673Z,93.83
2017-12-12T08:46:11.288Z,93.74
2017-12-12T08:47:44.393Z,93.91
2017-12-12T08:49:07.965Z,94.52
2017-12-12T08:50:12.502Z,94.75
2017-12-12T08:51:16.839Z,94.78
2017-12-12T08:52:21.556Z,94.85
2017-12-12T08:53:25.937Z,95.02
2017-12-12T08:54:30.226Z,94.92
2017-12-12T08:55:34.800Z,94.64
2017-12-12T08:56:39.098Z,94.56
2017-12-12T08:57:44.150Z,94.17
2017-12-12T08:58:48.600Z,94.05
2017-12-12T08:59:52.855Z,93.99
2017-12-12T09:01:05.031Z,94.20
2017-12-12T09:02:29.322Z,93.65
2017-12-12T09:03:33.643Z,93.54
2017-12-12T09:04:37.818Z,93.65
2017-12-12T09:05:42.181Z,93.29
2017-12-12T09:06:47.012Z,93.17
2017-12-12T09:07:51.541Z,93.39
2017-12-12T09:08:55.785Z,93.04
2017-12-12T09:10:00.191Z,93.05
2017-12-12T09:11:04.626Z,93.66
2017-12-12T09:12:09.354Z,93.40
2017-12-12T09:13:13.579Z,93.56
2017-12-12T09:14:17.821Z,93.15
2017-12-12T09:15:22.427Z,93.06
2017-12-12T09:16:26.958Z,93.39
2017-12-12T09:17:31.270Z,93.54
2017-12-12T09:18:35.580Z,92.86
2017-12-12T09:19:39.846Z,92.42
2017-12-12T09:20:44.742Z,92.13
2017-12-12T09:21:49.886Z,92.06
2017-12-12T09:22:54.168Z,92.39
2017-12-12T09:23:58.917Z,92.70
2017-12-12T09:25:03.265Z,92.73
2017-12-12T09:26:07.546Z,93.00
2017-12-12T09:27:11.858Z,92.62
2017-12-12T09:28:16.108Z,92.72
2017-12-12T09:29:20.355Z,92.32
2017-12-12T09:30:25.334Z,92.00
2017-12-12T09:31:29.579Z,91.97
2017-12-12T09:32:33.926Z,92.18
2017-12-12T09:33:38.192Z,92.26
2017-12-12T09:34:42.416Z,92.20
2017-12-12T09:35:47.672Z,92.49
2017-12-12T09:36:51.901Z,92.64
2017-12-12T09:37:56.228Z,92.34
2017-12-12T09:39:00.510Z,91.82
2017-12-12T09:40:04.804Z,91.86
2017-12-12T09:41:10.166Z,91.38
2017-12-12T09:42:14.408Z,91.63
2017-12-12T09:43:18.789Z,91.84
2017-12-12T09:44:23.893Z,91.93
2017-12-12T09:45:28.287Z,92.54
2017-12-12T09:46:32.758Z,92.18
2017-12-12T09:47:37.400Z,91.64
2017-12-12T09:48:41.735Z,91.62
2017-12-12T09:49:46.887Z,91.95
2017-12-12T09:50:51.146Z,92.09
2017-12-12T09:51:55.357Z,92.26
2017-12-12T09:53:00.696Z,92.50
2017-12-12T09:54:05.233Z,92.74
2017-12-12T09:55:10.473Z,91.93
2017-12-12T09:56:14.721Z,92.03
2017-12-12T09:57:19.203Z,91.93
2017-12-12T09:58:23.438Z,92.37
2017-12-12T09:59:27.674Z,92.26
2017-12-12T10:00:32.222Z,92.05
2017-12-12T10:01:36.519Z,92.83
2017-12-12T10:02:40.814Z,92.71
2017-12-12T10:03:46.012Z,92.50
2017-12-12T10:04:50.365Z,93.17
2017-12-12T10:05:54.648Z,93.12
2017-12-12T10:06:59.208Z,92.63
2017-12-12T10:08:03.477Z,92.45
2017-12-12T10:09:08.901Z,92.69
2017-12-12T10:10:13.147Z,92.64
2017-12-12T10:11:17.413Z,92.73
2017-12-12T10:12:21.768Z,92.54
2017-12-12T10:13:26.304Z,92.28
2017-12-12T10:14:30.562Z,92.37
2017-12-12T10:15:35.222Z,92.36
2017-12-12T10:16:39.487Z,91.77
2017-12-12T10:17:43.911Z,91.71
2017-12-12T10:18:49.134Z,92.17
2017-12-12T10:19:53.757Z,91.93
2017-12-12T10:20:58.052Z,92.61
2017-12-12T10:22:02.322Z,91.84
2017-12-12T10:23:06.555Z,91.78
2017-12-12T10:24:11.743Z,91.78
2017-12-12T10:25:15.976Z,91.35
2017-12-12T10:26:20.610Z,91.53
2017-12-12T10:27:24.853Z,91.18
2017-12-12T10:28:29.142Z,91.14
2017-12-12T10:29:33.469Z,91.67
2017-12-12T10:30:37.818Z,91.63
2017-12-12T10:31:42.247Z,91.22
2017-12-12T10:32:46.816Z,91.22
2017-12-12T10:33:51.136Z,91.40
2017-12-12T10:34:55.513Z,91.16
2017-12-12T10:35:59.726Z,91.28
2017-12-12T10:37:04.068Z,91.54
2017-12-12T10:38:09.488Z,91.74
2017-12-12T10:39:14.085Z,91.49
2017-12-12T10:40:18.432Z,91.49
2017-12-12T10:41:22.869Z,91.31
2017-12-12T10:42:27.130Z,91.50
2017-12-12T10:43:31.596Z,91.54
2017-12-12T10:44:35.990Z,91.24
2017-12-12T10:45:40.648Z,90.97
2017-12-12T10:46:44.973Z,91.31
2017-12-12T10:47:49.334Z,91.73
2017-12-12T10:48:53.713Z,90.67
2017-12-12T10:49:58.260Z,90.19
2017-12-12T10:51:03.062Z,90.14
2017-12-12T10:52:08.580Z,90.16
2017-12-12T10:53:12.847Z,90.17
2017-12-12T10:54:17.203Z,90.32
2017-12-12T10:55:21.568Z,90.53
2017-12-12T10:56:25.860Z,90.35
2017-12-12T10:57:30.133Z,90.42
2017-12-12T10:58:34.841Z,90.40
2017-12-12T10:59:39.137Z,90.28
2017-12-12T11:00:43.677Z,90.33
2017-12-12T11:01:47.967Z,90.36
2017-12-12T11:02:52.264Z,91.33
2017-12-12T11:03:56.598Z,90.79
2017-12-12T11:05:01.168Z,90.95
2017-12-12T11:06:05.530Z,90.90
2017-12-12T11:07:09.830Z,91.31
2017-12-12T11:08:14.088Z,91.18
2017-12-12T11:09:18.998Z,91.34
2017-12-12T11:10:23.382Z,90.62
2017-12-12T11:11:27.672Z,90.74
2017-12-12T11:12:31.947Z,90.53
2017-12-12T11:13:36.360Z,90.35
2017-12-12T11:14:40.676Z,90.17
2017-12-12T11:15:46.958Z,90.00
2017-12-12T11:16:51.178Z,89.88
2017-12-12T11:17:55.474Z,89.49
2017-12-12T11:18:59.837Z,89.72
2017-12-12T11:20:04.087Z,89.45
2017-12-12T11:21:08.978Z,89.24
2017-12-12T11:22:14.547Z,89.79
2017-12-12T11:23:18.824Z,89.40
2017-12-12T11:24:23.167Z,90.13
2017-12-12T11:25:27.400Z,90.21
2017-12-12T11:26:31.802Z,89.32
2017-12-12T11:27:36.270Z,89.59
2017-12-12T11:28:40.929Z,89.73
2017-12-12T11:29:45.225Z,89.69
2017-12-12T11:30:49.718Z,89.40
2017-12-12T11:31:54.256Z,89.29
2017-12-12T11:32:58.793Z,90.11
2017-12-12T11:34:03.147Z,90.23
2017-12-12T11:35:07.850Z,90.17
2017-12-12T11:36:12.994Z,89.71
2017-12-12T11:37:17.324Z,89.93
2017-12-12T11:38:21.568Z,89.92
2017-12-12T11:39:25.920Z,89.75
2017-12-12T11:40:30.181Z,89.78
2017-12-12T11:41:34.437Z,89.64
2017-12-12T11:42:38.750Z,89.59
2017-12-12T11:43:43.108Z,91.86
2017-12-12T11:44:47.433Z,90.04
2017-12-12T11:45:51.672Z,89.68
2017-12-12T11:46:56.028Z,89.43
2017-12-12T11:48:00.603Z,88.96
2017-12-12T11:49:05.005Z,88.84
2017-12-12T11:50:09.578Z,89.29
2017-12-12T11:51:14.034Z,89.45
2017-12-12T11:52:18.452Z,89.30
2017-12-12T11:53:23.049Z,89.64
2017-12-12T11:54:27.634Z,89.93
2017-12-12T11:55:32.009Z,89.67
2017-12-12T11:56:37.232Z,89.37
2017-12-12T11:57:41.665Z,89.22
2017-12-12T11:58:46.041Z,89.26
2017-12-12T11:59:50.446Z,89.44
2017-12-12T12:00:55.411Z,90.05
2017-12-12T12:01:59.689Z,90.25
2017-12-12T12:03:03.996Z,90.80
2017-12-12T12:04:09.994Z,91.05
2017-12-12T12:05:14.313Z,91.04
2017-12-12T12:06:18.596Z,91.12
2017-12-12T12:07:23.194Z,90.86
2017-12-12T12:08:27.577Z,91.33
2017-12-12T12:09:31.876Z,91.17
2017-12-12T12:10:36.285Z,91.31
2017-12-12T12:11:40.598Z,91.77
2017-12-12T12:12:45.266Z,91.85
2017-12-12T12:13:49.512Z,91.25
2017-12-12T12:14:53.758Z,90.96
2017-12-12T12:15:58.251Z,91.22
2017-12-12T12:17:03.335Z,91.09
2017-12-12T12:18:07.632Z,91.02
2017-12-12T12:19:12.874Z,90.90
2017-12-12T12:20:17.189Z,91.62
2017-12-12T12:21:21.526Z,90.92
2017-12-12T12:22:25.762Z,91.08
2017-12-12T12:23:30.226Z,91.05
2017-12-12T12:24:34.714Z,90.69
2017-12-12T12:25:39.389Z,90.95
2017-12-12T12:26:44.202Z,90.79
2017-12-12T12:27:48.501Z,91.10
2017-12-12T12:28:52.758Z,91.12
2017-12-12T12:29:57.095Z,90.75
2017-12-12T12:31:01.751Z,91.11
2017-12-12T12:32:06.281Z,91.50
2017-12-12T12:33:10.654Z,91.63
2017-12-12T12:34:14.913Z,91.26
2017-12-12T12:35:19.358Z,91.62
2017-12-12T12:36:23.696Z,91.61
2017-12-12T12:37:28.071Z,92.46
2017-12-12T12:38:32.685Z,92.57
2017-12-12T12:39:37.053Z,92.80
2017-12-12T12:40:41.383Z,92.58
2017-12-12T12:41:45.696Z,91.91
2017-12-12T12:42:50.980Z,91.59
2017-12-12T12:43:55.252Z,91.89
2017-12-12T12:44:59.928Z,91.41
2017-12-12T12:46:04.293Z,91.68
2017-12-12T12:47:09.926Z,92.00
2017-12-12T12:48:14.163Z,92.01
2017-12-12T12:49:18.529Z,91.22
2017-12-12T12:50:22.778Z,92.09
2017-12-12T12:51:27.421Z,91.27
2017-12-12T12:52:31.794Z,91.91
2017-12-12T12:53:36.136Z,91.39
2017-12-12T12:54:40.422Z,91.32
2017-12-12T12:55:45.547Z,91.40
2017-12-12T12:56:49.924Z,90.96
2017-12-12T12:57:55.009Z,90.89
2017-12-12T12:59:00.080Z,90.89
2017-12-12T13:00:06.537Z,90.64
2017-12-12T13:01:11.310Z,90.62
2017-12-12T13:02:15.613Z,91.11
2017-12-12T13:03:20.171Z,90.82
2017-12-12T13:04:24.516Z,91.15
2017-12-12T13:05:28.748Z,90.85
2017-12-12T13:06:32.992Z,90.99
2017-12-12T13:07:37.338Z,91.28
2017-12-12T13:08:41.846Z,91.31
2017-12-12T13:09:46.528Z,90.96
2017-12-12T13:10:50.824Z,90.73
2017-12-12T13:11:56.244Z,90.59
2017-12-12T13:13:00.633Z,90.45
2017-12-12T13:14:04.916Z,90.83
2017-12-12T13:15:10.384Z,90.96
2017-12-12T13:16:15.018Z,91.40
2017-12-12T13:17:19.561Z,90.87
2017-12-12T13:18:23.941Z,90.52
2017-12-12T13:19:28.203Z,90.41
2017-12-12T13:20:32.462Z,91.16
2017-12-12T13:21:36.757Z,91.46
2017-12-12T13:22:41.033Z,90.99
2017-12-12T13:23:45.545Z,91.13
2017-12-12T13:24:49.820Z,91.12
2017-12-12T13:25:54.205Z,91.40
2017-12-12T13:26:58.498Z,91.36
2017-12-12T13:28:02.794Z,91.10
2017-12-12T13:29:07.564Z,90.73
2017-12-12T13:30:15.034Z,91.02
2017-12-12T13:31:19.555Z,91.91
2017-12-12T13:32:24.052Z,92.14
2017-12-12T13:33:28.331Z,92.02
2017-12-12T13:34:32.621Z,92.03
2017-12-12T13:35:41.121Z,92.33
2017-12-12T13:36:46.075Z,91.95
2017-12-12T13:37:50.979Z,91.69
2017-12-12T13:38:55.281Z,91.57
2017-12-12T13:39:59.615Z,91.25
2017-12-12T13:41:03.971Z,91.17
2017-12-12T13:42:09.201Z,91.33
2017-12-12T13:43:13.463Z,91.48
2017-12-12T13:44:17.754Z,91.27
2017-12-12T13:45:22.092Z,91.15
2017-12-12T13:46:26.350Z,91.80
2017-12-12T13:47:31.045Z,92.12
2017-12-12T13:48:35.347Z,92.13
2017-12-12T13:49:39.607Z,92.44
2017-12-12T13:50:44.628Z,92.02
2017-12-12T13:51:49.014Z,91.07
2017-12-12T13:52:53.409Z,91.20
2017-12-12T13:53:58.162Z,91.31
2017-12-12T13:55:02.395Z,91.22